Terminal Aerodrome Forecast
Issued by NWS Twin Cities, MN

Home | Current Version | Previous Version | Graphics & Text | Print | Product List | Glossary On
Versions: 1 2 3 4 5 6 7 8 9 10 11 12 13 14 15 16 17
000
FTUS43 KMPX 292339
TAFEAU
TAF
KEAU 292339Z 3000/3024 32014G20KT P6SM BKN035
     FM300400 33010KT P6SM SCT035
     FM300900 VRB04KT P6SM SCT100
     FM302000 19005KT P6SM BKN080=

USA.gov is the U.S. government's official web portal to all federal, state and local government web resources and services.